Lethbridge, Canada
Current Conditions -  °F | °C
As of 7:00 PM on Sunday 23 Nov 2014 (Local Time) from CYQL Reporting Station
Broken Clouds Broken Clouds  
Wind Chill: 24°   Ceiling: 19000
Heat Index: 34°   Visibility: 15mi
Dew Point: 25°   Wind: 15mph
Humidity: 70%   Direction: 240°WSW
Pressure: 29.7"   Gusts: 23mph
Location:  49.69°N, 112.83°W
Report Text: CYQL 240200Z 24013G20KT 15SM FEW160 BKN190 01/M04 A2970 RMK AC2CI4 SLP098
Loading
Personal Weather Stations






























Interactive Weather Map New forecast layout! Learn more

10-Day Weather Forecast

Advertisements
Track Severe Weather on mobile